Pagina principală
METAR-TAF:

METAR-TAF

Aeroporturi :

Bobby L. Chain Municipal Airport

Hattiesburg, Mississippi, Statele Unite ale Americii

Latitudine: 31-15-54N, longitudine: 089-15-11W, elevație: 46 m

Observații meteo curente

Raportul a fost făcut în urmă cu 1 oră și 2 de minute, la 03:53 UTC
Vânt calm
Temperatură 25°C
Umiditate 83%
Presiune 1016 hPa
Vizibilitate: 16.1 km
Cer senin

METAR: KHBG 280353Z AUTO 00000KT 10SM CLR 25/22 A2999 RMK AO2 SLP152 T02500222 $

Ora: 23:55 (04:55 UTC)

Prognoză

Raportul a fost făcut în urmă cu 5 ore și 35 de minute, la 23:20 UTC
Prognoză valabilă de la 28 ora 00 UTC la 28 ora 24 UTC
Vânt 5 kt de la Vest/Sud-vest
Vizibilitate: 10 km
Nori împrăștiați la o înălțime de 4000 picior, Cumulonimbus.
Nori fragmentați la o înălțime de 6000 picior
oraj în apropiere
De la 28 ora 0100 UTC
Vânt kt de la Nord
Vizibilitate: 10 km
Cer senin

TAF: KHBG 272320Z 2800/2824 25005KT P6SM VCTS SCT040CB BKN060 FM280100 00000KT P6SM SKC

Observații și prognoze meteo pentru peste 4.000 de aeroporturi (rapoarte METAR și TAF).

Stațiile disponibile sunt reprezentate pe hartă prin puncte galbene și roșii.

Țineți indicatorul mouse-ului pe punctul dorit pentru a vedea denumirea stației.

Apoi, faceți clic pentru a vedea observațiile și prognozele meteorologice.

Pentru a schimba harta: Pentru mărire, faceți clic pe butoanele verzi cu cruce neagră; pentru micșorare, pe butonul verde cu o liniuță; pentru hărți învecinate, pe săgețile verzi.


METAR-TAF: